Loyal, WI (54446)

7:12 AM CDT on October 31, 2014 (GMT -0500)
Backyard, N. Andrews Ave | Change Station
CLOSE
Current Station
Personal Weather Station
Location: Greenwood, WI
Elevation: 1161 ft
Nearby Weather Stations

Elev 1161 ft 44.77 °N, 90.60 °W | Updated 2 seconds ago

Overcast
Overcast
29.3 °F
Feels Like 18 °F
N
15.2
Wind Variable Wind from North
Gusts 15.9 mph

Today
High -- | Low -- °F
--% Chance of Precip.
Yesterday
High -- | Low -- °F
Precip. -- in
7:38 AM 5:51 PM
First Quarter, 54% visible
Pressure 30.30 in
Visibility 10.0 miles
Clouds Mostly Cloudy 2800 ft
Mostly Cloudy 3400 ft
Windchill 18 °F
Dew Point 21 °F
Humidity 71%
Rainfall 0.00 in
Snow Depth Not available.
UV 0 out of 12
Pollen .10 out of 12
Air Quality Not available.
Flu Activity Not available.
SPECI KMFI 311209Z AUTO 36013G20KT 10SM BKN028 BKN034 M01/M06 A3030 RMK AO2 T10061056

More Conditions Fewer Conditions

Pressure 30.30 in
Visibility 10.0 miles
Clouds Mostly Cloudy 2800 ft
Mostly Cloudy 3400 ft
Windchill 18 °F
Dew Point 21 °F
Humidity 71%
Rainfall 0.00 in
Snow Depth Not available.
UV 0 out of 12
Pollen .10 out of 12
Air Quality Not available.
Flu Activity Not available.
SPECI KMFI 311209Z AUTO 36013G20KT 10SM BKN028 BKN034 M01/M06 A3030 RMK AO2 T10061056

More Conditions Fewer Conditions

10-Day Weather Forecast

Almanac

Astronomy

Oct. 31, 2014 Rise Set
Actual Time
Civil Twilight
Nautical Twilight
Astronomical Twilight
Moon
Length of Visible Light
Length of Day
Tomorrow will be .
, % of the Moon is Illuminated

Today's Extremes

State Highs State Lows

Community

WunderPhotos

Upload Photos

1,766,589 photos uploaded!

WunderBlogs® & News

Nearby

Air Quality

  Air Quality AQ Index Pollutant
Not available.

Snow Depth

Station Depth Elevation

Earthquake Activity

City Distance Mag. Time & Date
Minimum magnitude displayed is 2.5.

Coastal Water Temperatures

Place Temperature

Nearby Weather Stations